createdAt,value
2019-03-24T00:00:32.000Z,4.60
2019-03-24T00:03:01.329Z,3.67
2019-03-24T00:05:30.652Z,4.23
2019-03-24T00:07:59.990Z,3.93
2019-03-24T00:10:29.320Z,3.53
2019-03-24T00:13:00.123Z,3.83
2019-03-24T00:15:29.448Z,3.40
2019-03-24T00:17:58.947Z,3.60
2019-03-24T00:20:28.230Z,3.27
2019-03-24T00:22:57.556Z,3.33
2019-03-24T00:25:26.892Z,4.13
2019-03-24T00:27:56.234Z,3.90
2019-03-24T00:30:25.650Z,3.23
2019-03-24T00:32:54.974Z,3.00
2019-03-24T00:35:24.290Z,3.23
2019-03-24T00:37:53.638Z,3.23
2019-03-24T00:40:22.957Z,3.50
2019-03-24T00:42:52.310Z,3.90
2019-03-24T00:45:21.619Z,3.40
2019-03-24T00:47:51.169Z,3.47
2019-03-24T00:50:20.469Z,3.57
2019-03-24T00:52:49.863Z,3.30
2019-03-24T00:55:19.221Z,3.85
2019-03-24T00:57:48.641Z,3.50
2019-03-24T01:00:20.578Z,3.23
2019-03-24T01:02:49.970Z,4.13
2019-03-24T01:05:19.319Z,3.50
2019-03-24T01:07:48.714Z,3.23
2019-03-24T01:10:18.056Z,3.47
2019-03-24T01:12:47.376Z,3.43
2019-03-24T01:15:16.682Z,3.87
2019-03-24T01:17:46.116Z,3.43
2019-03-24T01:20:17.001Z,3.73
2019-03-24T01:22:46.330Z,3.90
2019-03-24T01:25:15.738Z,3.47
2019-03-24T01:27:45.159Z,3.47
2019-03-24T01:30:14.635Z,3.17
2019-03-24T01:32:43.988Z,3.20
2019-03-24T01:35:14.922Z,5.63
2019-03-24T01:37:44.467Z,3.80
2019-03-24T01:40:14.059Z,3.97
2019-03-24T01:42:43.367Z,3.57
2019-03-24T01:45:12.952Z,3.27
2019-03-24T01:47:42.431Z,3.50
2019-03-24T01:50:11.883Z,3.80
2019-03-24T01:52:41.221Z,3.47
2019-03-24T01:55:10.728Z,3.57
2019-03-24T01:57:40.233Z,4.13
2019-03-24T02:00:09.728Z,3.70
2019-03-24T02:02:39.124Z,4.07
2019-03-24T02:05:09.214Z,3.27
2019-03-24T02:07:38.802Z,3.70
2019-03-24T02:10:09.025Z,3.27
2019-03-24T02:12:38.511Z,3.80
2019-03-24T02:15:08.624Z,3.63
2019-03-24T02:17:38.247Z,3.90
2019-03-24T02:20:08.544Z,3.33
2019-03-24T02:22:37.947Z,2.80
2019-03-24T02:25:07.815Z,3.37
2019-03-24T02:27:37.277Z,3.23
2019-03-24T02:30:07.392Z,3.63
2019-03-24T02:32:36.695Z,3.17
2019-03-24T02:35:06.958Z,2.50
2019-03-24T02:37:36.525Z,3.33
2019-03-24T02:40:06.292Z,2.83
2019-03-24T02:42:35.641Z,2.57
2019-03-24T02:45:05.990Z,3.43
2019-03-24T02:47:35.515Z,2.93
2019-03-24T02:50:05.464Z,3.70
2019-03-24T02:52:34.875Z,4.20
2019-03-24T02:55:04.448Z,2.90
2019-03-24T02:57:33.894Z,3.27
2019-03-24T03:00:03.483Z,2.83
2019-03-24T03:02:32.863Z,2.87
2019-03-24T03:05:02.205Z,2.43
2019-03-24T03:07:31.693Z,3.00
2019-03-24T03:10:01.029Z,3.47
2019-03-24T03:12:30.352Z,2.70
2019-03-24T03:14:59.707Z,2.83
2019-03-24T03:17:29.071Z,2.53
2019-03-24T03:19:58.464Z,2.83
2019-03-24T03:22:27.809Z,3.00
2019-03-24T03:24:57.294Z,2.43
2019-03-24T03:27:26.705Z,2.15
2019-03-24T03:29:56.030Z,2.77
2019-03-24T03:32:25.345Z,3.20
2019-03-24T03:34:54.674Z,2.60
2019-03-24T03:37:24.075Z,3.00
2019-03-24T03:39:57.896Z,2.60
2019-03-24T03:42:24.460Z,2.90
2019-03-24T03:44:53.844Z,2.77
2019-03-24T03:47:23.263Z,2.57
2019-03-24T03:49:52.563Z,2.80
2019-03-24T03:52:21.889Z,2.57
2019-03-24T03:54:51.206Z,3.00
2019-03-24T03:57:20.612Z,2.80
2019-03-24T03:59:49.956Z,2.60
2019-03-24T04:02:19.287Z,2.87
2019-03-24T04:04:48.626Z,2.60
2019-03-24T04:07:18.056Z,2.30
2019-03-24T04:09:47.542Z,2.00
2019-03-24T04:12:19.234Z,2.47
2019-03-24T04:14:50.262Z,2.53
2019-03-24T04:17:19.575Z,2.30
2019-03-24T04:19:48.880Z,2.40
2019-03-24T04:22:23.010Z,2.07
2019-03-24T04:24:52.359Z,1.87
2019-03-24T04:27:22.902Z,2.10
2019-03-24T04:29:52.293Z,1.93
2019-03-24T04:32:21.679Z,2.00
2019-03-24T04:34:51.320Z,2.00
2019-03-24T04:37:23.341Z,1.40
2019-03-24T04:39:52.736Z,2.00
2019-03-24T04:42:22.571Z,1.93
2019-03-24T04:44:54.460Z,1.60
2019-03-24T04:47:23.935Z,1.87
2019-03-24T04:49:54.815Z,1.63
2019-03-24T04:52:44.927Z,1.67
2019-03-24T04:55:14.500Z,1.90
2019-03-24T04:57:43.873Z,2.23
2019-03-24T05:00:13.665Z,1.80
2019-03-24T05:02:44.514Z,1.63
2019-03-24T05:05:14.409Z,2.00
2019-03-24T05:07:44.153Z,1.90
2019-03-24T05:10:26.180Z,1.80
2019-03-24T05:13:00.205Z,2.20
2019-03-24T05:15:30.087Z,1.60
2019-03-24T05:17:59.661Z,1.80
2019-03-24T05:20:29.269Z,2.13
2019-03-24T05:22:58.622Z,2.07
2019-03-24T05:25:31.000Z,2.17
2019-03-24T05:28:01.165Z,2.50
2019-03-24T05:30:30.553Z,1.80
2019-03-24T05:32:59.959Z,2.40
2019-03-24T05:35:29.301Z,2.77
2019-03-24T05:37:58.651Z,2.23
2019-03-24T05:40:28.009Z,2.53
2019-03-24T05:42:57.324Z,2.40
2019-03-24T05:45:26.651Z,2.70
2019-03-24T05:47:56.101Z,2.23
2019-03-24T05:50:25.570Z,2.60
2019-03-24T05:52:54.897Z,2.90
2019-03-24T05:55:24.217Z,2.77
2019-03-24T05:57:53.658Z,2.50
2019-03-24T06:00:22.963Z,2.80
2019-03-24T06:02:52.283Z,2.73
2019-03-24T06:05:22.151Z,2.23
2019-03-24T06:07:51.573Z,2.90
2019-03-24T06:10:20.858Z,2.67
2019-03-24T06:12:50.202Z,2.10
2019-03-24T06:15:19.516Z,2.50
2019-03-24T06:17:48.899Z,2.40
2019-03-24T06:20:18.280Z,3.03
2019-03-24T06:22:47.600Z,2.80
2019-03-24T06:25:16.900Z,3.00
2019-03-24T06:27:46.361Z,2.37
2019-03-24T06:30:16.277Z,3.00
2019-03-24T06:32:45.575Z,3.07
2019-03-24T06:35:15.030Z,2.87
2019-03-24T06:37:44.542Z,3.07
2019-03-24T06:40:14.142Z,2.73
2019-03-24T06:42:43.443Z,2.90
2019-03-24T06:45:12.844Z,3.00
2019-03-24T06:47:43.239Z,3.73
2019-03-24T06:50:13.862Z,2.93
2019-03-24T06:52:43.215Z,2.73
2019-03-24T06:55:12.753Z,2.87
2019-03-24T06:57:42.191Z,3.33
2019-03-24T07:00:12.868Z,3.55
2019-03-24T07:02:42.329Z,3.57
2019-03-24T07:05:12.017Z,3.90
2019-03-24T07:07:41.344Z,3.30
2019-03-24T07:10:11.929Z,3.70
2019-03-24T07:12:41.255Z,4.07
2019-03-24T07:15:11.528Z,3.52
2019-03-24T07:17:40.968Z,3.43
2019-03-24T07:20:10.813Z,3.20
2019-03-24T07:22:40.149Z,3.83
2019-03-24T07:25:10.155Z,5.00
2019-03-24T07:27:39.546Z,3.80
2019-03-24T07:30:11.009Z,4.23
2019-03-24T07:32:40.336Z,4.03
2019-03-24T07:35:10.425Z,3.83
2019-03-24T07:37:40.820Z,3.77
2019-03-24T07:40:10.631Z,3.70
2019-03-24T07:42:40.039Z,3.80
2019-03-24T07:45:10.451Z,3.47
2019-03-24T07:47:39.869Z,3.63
2019-03-24T07:50:10.273Z,3.30
2019-03-24T07:52:39.589Z,4.27
2019-03-24T07:55:09.997Z,3.45
2019-03-24T07:57:39.539Z,3.17
2019-03-24T08:00:14.110Z,3.10
2019-03-24T08:02:51.480Z,4.13
2019-03-24T08:05:20.830Z,4.10
2019-03-24T08:07:50.324Z,3.27
2019-03-24T08:10:19.656Z,3.30
2019-03-24T08:12:49.014Z,3.20
2019-03-24T08:15:18.629Z,3.03
2019-03-24T08:17:48.109Z,4.43
2019-03-24T08:20:17.504Z,3.17
2019-03-24T08:22:46.842Z,3.23
2019-03-24T08:25:16.154Z,3.10
2019-03-24T08:27:45.461Z,4.07
2019-03-24T08:30:17.221Z,3.27
2019-03-24T08:32:46.545Z,3.97
2019-03-24T08:35:15.855Z,3.83
2019-03-24T08:37:45.291Z,4.27
2019-03-24T08:40:14.650Z,3.23
2019-03-24T08:42:43.958Z,2.90
2019-03-24T08:45:16.733Z,3.53
2019-03-24T08:47:46.220Z,3.83
2019-03-24T08:50:15.541Z,4.03
2019-03-24T08:52:44.953Z,3.03
2019-03-24T08:55:14.293Z,2.70
2019-03-24T08:57:43.800Z,3.43
2019-03-24T09:00:13.326Z,2.67
2019-03-24T09:02:42.655Z,3.53
2019-03-24T09:05:12.053Z,2.53
2019-03-24T09:07:41.474Z,3.40
2019-03-24T09:10:11.406Z,3.60
2019-03-24T09:12:40.774Z,3.00
2019-03-24T09:15:10.354Z,3.40
2019-03-24T09:17:41.297Z,4.00
2019-03-24T09:20:11.561Z,4.43
2019-03-24T09:22:42.778Z,3.17
2019-03-24T09:25:13.225Z,3.30
2019-03-24T09:27:42.595Z,3.63
2019-03-24T09:30:36.996Z,3.77
2019-03-24T09:33:09.787Z,3.30
2019-03-24T09:35:49.333Z,3.17
2019-03-24T09:38:23.165Z,3.80
2019-03-24T09:40:54.240Z,3.50
2019-03-24T09:43:26.419Z,4.17
2019-03-24T09:45:56.263Z,3.53
2019-03-24T09:48:25.983Z,3.50
2019-03-24T09:50:56.844Z,3.00
2019-03-24T09:53:27.593Z,3.90
2019-03-24T09:55:56.915Z,3.00
2019-03-24T09:58:26.541Z,3.67
2019-03-24T10:00:55.925Z,3.80
2019-03-24T10:03:27.789Z,4.30
2019-03-24T10:05:57.195Z,4.53
2019-03-24T10:08:27.883Z,4.07
2019-03-24T10:10:57.302Z,3.50
2019-03-24T10:13:26.682Z,3.47
2019-03-24T10:15:56.011Z,4.47
2019-03-24T10:18:25.511Z,3.63
2019-03-24T10:20:55.387Z,3.73
2019-03-24T10:23:24.713Z,4.80
2019-03-24T10:25:55.322Z,3.03
2019-03-24T10:28:25.212Z,3.27
2019-03-24T10:30:54.624Z,4.40
2019-03-24T10:33:24.116Z,4.10
2019-03-24T10:35:54.114Z,3.77
2019-03-24T10:38:25.823Z,3.67
2019-03-24T10:40:55.169Z,3.97
2019-03-24T10:43:24.862Z,3.63
2019-03-24T10:45:54.239Z,4.47
2019-03-24T10:48:33.384Z,3.57
2019-03-24T10:50:55.150Z,3.93
2019-03-24T10:53:24.491Z,4.17
2019-03-24T10:55:53.854Z,4.00
2019-03-24T10:58:23.314Z,4.10
2019-03-24T11:00:53.825Z,2.83
2019-03-24T11:03:23.229Z,4.30
2019-03-24T11:05:52.574Z,3.87
2019-03-24T11:08:22.301Z,3.33
2019-03-24T11:10:52.846Z,3.17
2019-03-24T11:13:23.763Z,3.57
2019-03-24T11:15:53.160Z,3.00
2019-03-24T11:18:23.116Z,2.80
2019-03-24T11:20:54.969Z,3.10
2019-03-24T11:23:28.668Z,3.90
2019-03-24T11:26:00.367Z,3.33
2019-03-24T11:28:30.899Z,3.93
2019-03-24T11:31:00.206Z,3.37
2019-03-24T11:33:30.631Z,2.80
2019-03-24T11:36:01.924Z,2.50
2019-03-24T11:38:34.368Z,2.40
2019-03-24T11:41:06.435Z,3.43
2019-03-24T11:43:35.742Z,2.87
2019-03-24T11:46:05.237Z,3.07
2019-03-24T11:48:34.835Z,3.83
2019-03-24T11:51:04.217Z,2.50
2019-03-24T11:53:33.545Z,2.83
2019-03-24T11:56:03.059Z,2.50
2019-03-24T11:58:32.608Z,3.30
2019-03-24T12:01:02.008Z,3.27
2019-03-24T12:03:31.348Z,4.00
2019-03-24T12:06:00.756Z,3.50
2019-03-24T12:08:30.116Z,3.23
2019-03-24T12:10:59.555Z,3.10
2019-03-24T12:13:28.880Z,2.57
2019-03-24T12:15:58.314Z,2.27
2019-03-24T12:18:27.798Z,2.73
2019-03-24T12:20:57.138Z,2.10
2019-03-24T12:23:26.467Z,2.23
2019-03-24T12:25:55.787Z,2.23
2019-03-24T12:28:25.091Z,2.37
2019-03-24T12:30:55.208Z,2.23
2019-03-24T12:33:24.513Z,2.27
2019-03-24T12:35:53.886Z,2.37
2019-03-24T12:38:23.415Z,2.63
2019-03-24T12:40:52.849Z,2.87
2019-03-24T12:43:22.163Z,2.40
2019-03-24T12:45:52.144Z,2.37
2019-03-24T12:48:24.058Z,1.97
2019-03-24T12:50:54.404Z,2.33
2019-03-24T12:53:29.000Z,2.30
2019-03-24T12:55:58.309Z,2.73
2019-03-24T12:58:29.483Z,2.60
2019-03-24T13:01:01.842Z,2.60
2019-03-24T13:03:32.623Z,2.50
2019-03-24T13:06:02.299Z,2.77
2019-03-24T13:08:31.653Z,2.43
2019-03-24T13:11:00.952Z,2.20
2019-03-24T13:13:30.281Z,1.90
2019-03-24T13:16:00.059Z,3.83
2019-03-24T13:18:29.523Z,2.27
2019-03-24T13:20:59.607Z,2.17
2019-03-24T13:23:28.947Z,5.30
2019-03-24T13:25:58.263Z,2.43
2019-03-24T13:28:35.746Z,2.50
2019-03-24T13:31:05.124Z,2.40
2019-03-24T13:33:34.698Z,2.30
2019-03-24T13:36:09.860Z,2.43
2019-03-24T13:38:39.331Z,2.47
2019-03-24T13:41:08.860Z,2.13
2019-03-24T13:43:39.898Z,1.80
2019-03-24T13:46:09.355Z,1.60
2019-03-24T13:48:40.327Z,1.87
2019-03-24T13:51:09.650Z,1.93
2019-03-24T13:53:39.251Z,2.00
2019-03-24T13:56:08.915Z,1.80
2019-03-24T13:58:40.476Z,2.50
2019-03-24T14:01:11.317Z,1.93
2019-03-24T14:03:40.692Z,1.70
2019-03-24T14:06:17.454Z,1.47
2019-03-24T14:08:46.860Z,1.57
2019-03-24T14:11:16.253Z,1.33
2019-03-24T14:13:45.665Z,1.80
2019-03-24T14:16:18.394Z,1.50
2019-03-24T14:18:49.145Z,1.73
2019-03-24T14:21:20.948Z,1.97
2019-03-24T14:23:50.279Z,2.10
2019-03-24T14:26:20.165Z,2.30
2019-03-24T14:28:52.144Z,1.80
2019-03-24T14:31:24.482Z,2.13
2019-03-24T14:33:55.163Z,1.77
2019-03-24T14:36:26.886Z,2.47
2019-03-24T14:38:57.442Z,2.30
2019-03-24T14:41:27.821Z,2.20
2019-03-24T14:43:58.685Z,1.83
2019-03-24T14:46:33.083Z,1.70
2019-03-24T14:49:02.483Z,2.00
2019-03-24T14:51:32.007Z,1.73
2019-03-24T14:54:01.345Z,1.77
2019-03-24T14:56:30.727Z,1.80
2019-03-24T14:59:02.528Z,2.20
2019-03-24T15:01:31.860Z,1.87
2019-03-24T15:04:01.214Z,2.10
2019-03-24T15:06:30.634Z,1.90
2019-03-24T15:09:01.443Z,1.20
2019-03-24T15:11:30.775Z,1.73
2019-03-24T15:14:01.022Z,1.47
2019-03-24T15:16:30.352Z,2.10
2019-03-24T15:19:00.364Z,3.33
2019-03-24T15:21:29.674Z,2.33
2019-03-24T15:24:00.601Z,2.30
2019-03-24T15:26:29.951Z,3.63
2019-03-24T15:28:59.465Z,2.20
2019-03-24T15:31:28.837Z,2.40
2019-03-24T15:33:58.166Z,1.97
2019-03-24T15:36:27.513Z,2.50
2019-03-24T15:38:56.892Z,2.13
2019-03-24T15:41:26.566Z,2.80
2019-03-24T15:43:55.875Z,2.53
2019-03-24T15:46:26.983Z,2.87
2019-03-24T15:48:56.359Z,3.63
2019-03-24T15:51:25.732Z,2.33
2019-03-24T15:53:55.232Z,2.57
2019-03-24T15:56:24.551Z,2.30
2019-03-24T15:58:53.946Z,2.30
2019-03-24T16:01:23.288Z,3.10
2019-03-24T16:03:52.619Z,2.90
2019-03-24T16:06:22.002Z,2.67
2019-03-24T16:08:51.357Z,2.57
2019-03-24T16:11:20.710Z,3.37
2019-03-24T16:13:50.032Z,3.20
2019-03-24T16:16:19.629Z,3.43
2019-03-24T16:18:49.161Z,3.50
2019-03-24T16:21:27.320Z,3.97
2019-03-24T16:23:49.526Z,3.27
2019-03-24T16:26:19.736Z,3.87
2019-03-24T16:28:49.296Z,4.17
2019-03-24T16:31:18.631Z,3.93
2019-03-24T16:33:47.955Z,3.93
2019-03-24T16:36:18.572Z,4.05
2019-03-24T16:38:49.036Z,3.63
2019-03-24T16:41:18.792Z,3.70
2019-03-24T16:43:48.588Z,3.57
2019-03-24T16:46:18.368Z,3.67
2019-03-24T16:48:48.146Z,5.50
2019-03-24T16:51:17.504Z,4.27
2019-03-24T16:53:48.176Z,3.90
2019-03-24T16:56:20.064Z,3.70
2019-03-24T16:58:51.399Z,3.50
2019-03-24T17:01:20.807Z,2.67
2019-03-24T17:03:50.241Z,2.90
2019-03-24T17:06:20.741Z,3.20
2019-03-24T17:08:51.583Z,2.83
2019-03-24T17:11:20.930Z,2.80
2019-03-24T17:13:50.335Z,2.13
2019-03-24T17:16:21.849Z,2.20
2019-03-24T17:18:51.607Z,1.90
2019-03-24T17:21:20.929Z,2.63
2019-03-24T17:23:50.228Z,2.07
2019-03-24T17:26:19.650Z,2.17
2019-03-24T17:28:49.011Z,2.80
2019-03-24T17:31:21.174Z,2.27
2019-03-24T17:33:52.294Z,1.93
2019-03-24T17:36:21.594Z,2.47
2019-03-24T17:38:51.206Z,4.30
2019-03-24T17:41:25.422Z,2.60
2019-03-24T17:44:02.869Z,3.37
2019-03-24T17:46:25.783Z,2.93
2019-03-24T17:48:56.247Z,2.90
2019-03-24T17:51:30.125Z,3.10
2019-03-24T17:53:59.472Z,3.03
2019-03-24T17:56:28.879Z,2.60
2019-03-24T17:58:58.224Z,2.50
2019-03-24T18:01:27.548Z,3.07
2019-03-24T18:03:56.878Z,2.90
2019-03-24T18:06:27.022Z,2.73
2019-03-24T18:08:56.443Z,3.00
2019-03-24T18:11:25.758Z,2.60
2019-03-24T18:13:55.054Z,2.20
2019-03-24T18:16:24.379Z,2.00
2019-03-24T18:18:59.548Z,2.27
2019-03-24T18:21:32.318Z,2.20
2019-03-24T18:24:01.804Z,1.93
2019-03-24T18:26:32.997Z,2.53
2019-03-24T18:29:02.589Z,2.10
2019-03-24T18:31:31.907Z,2.43
2019-03-24T18:34:01.231Z,1.87
2019-03-24T18:36:30.581Z,2.00
2019-03-24T18:39:00.115Z,2.00
2019-03-24T18:41:29.497Z,2.13
2019-03-24T18:44:02.666Z,2.13
2019-03-24T18:46:32.125Z,2.33
2019-03-24T18:49:14.192Z,2.50
2019-03-24T18:51:46.214Z,2.20
2019-03-24T18:54:23.902Z,2.20
2019-03-24T18:56:53.251Z,2.57
2019-03-24T18:59:22.780Z,2.43
2019-03-24T19:01:52.180Z,2.13
2019-03-24T19:04:21.924Z,2.77
2019-03-24T19:06:51.559Z,2.10
2019-03-24T19:09:20.980Z,2.10
2019-03-24T19:11:51.741Z,2.10
2019-03-24T19:14:21.168Z,2.97
2019-03-24T19:16:50.569Z,1.87
2019-03-24T19:19:31.012Z,2.13
2019-03-24T19:22:10.272Z,2.27
2019-03-24T19:24:39.955Z,2.10
2019-03-24T19:27:13.088Z,1.97
2019-03-24T19:30:04.761Z,2.00
2019-03-24T19:32:42.267Z,2.30
2019-03-24T19:35:11.963Z,2.17
2019-03-24T19:37:44.939Z,2.73
2019-03-24T19:40:26.539Z,2.00
2019-03-24T19:42:55.879Z,2.40
2019-03-24T19:45:25.437Z,2.20
2019-03-24T19:47:55.412Z,2.53
2019-03-24T19:50:26.130Z,2.17
2019-03-24T19:52:55.465Z,2.37
2019-03-24T19:55:24.784Z,2.20
2019-03-24T19:57:54.293Z,2.80
2019-03-24T20:00:23.868Z,2.53
2019-03-24T20:02:53.301Z,2.43
2019-03-24T20:05:26.861Z,2.40
2019-03-24T20:07:56.031Z,1.93
2019-03-24T20:10:25.365Z,1.92
2019-03-24T20:12:54.689Z,2.07
2019-03-24T20:15:30.261Z,2.37
2019-03-24T20:17:59.746Z,2.20
2019-03-24T20:20:29.087Z,1.97
2019-03-24T20:22:58.411Z,1.97
2019-03-24T20:25:29.324Z,2.30
2019-03-24T20:27:59.110Z,2.40
2019-03-24T20:30:28.500Z,2.87
2019-03-24T20:32:57.829Z,2.70
2019-03-24T20:35:31.689Z,3.63
2019-03-24T20:38:01.055Z,2.93
2019-03-24T20:40:30.377Z,2.97
2019-03-24T20:42:59.693Z,3.10
2019-03-24T20:45:29.102Z,3.50
2019-03-24T20:47:59.698Z,3.43
2019-03-24T20:50:28.959Z,3.30
2019-03-24T20:53:05.466Z,3.73
2019-03-24T20:55:37.389Z,3.07
2019-03-24T20:58:06.961Z,3.57
2019-03-24T21:00:37.283Z,3.37
2019-03-24T21:03:10.894Z,2.83
2019-03-24T21:05:40.212Z,3.70
2019-03-24T21:08:09.844Z,3.13
2019-03-24T21:10:39.221Z,3.20
2019-03-24T21:13:09.457Z,3.20
2019-03-24T21:15:38.948Z,3.47
2019-03-24T21:18:11.941Z,3.37
2019-03-24T21:20:41.333Z,2.87
2019-03-24T21:23:11.375Z,3.00
2019-03-24T21:25:42.497Z,3.60
2019-03-24T21:28:23.266Z,3.07
2019-03-24T21:30:58.188Z,3.13
2019-03-24T21:33:35.425Z,2.53
2019-03-24T21:36:12.373Z,3.10
2019-03-24T21:38:47.962Z,3.00
2019-03-24T21:41:18.422Z,3.00
2019-03-24T21:43:48.810Z,3.00
2019-03-24T21:46:22.140Z,5.07
2019-03-24T21:48:51.523Z,2.63
2019-03-24T21:51:22.041Z,2.40
2019-03-24T21:53:55.442Z,2.83
2019-03-24T21:56:31.549Z,3.57
2019-03-24T21:59:03.752Z,3.03
2019-03-24T22:01:34.038Z,3.40
2019-03-24T22:04:05.218Z,2.67
2019-03-24T22:06:35.667Z,2.53
2019-03-24T22:09:08.008Z,3.17
2019-03-24T22:11:40.393Z,3.20
2019-03-24T22:14:11.459Z,2.73
2019-03-24T22:16:40.947Z,2.67
2019-03-24T22:19:10.368Z,2.63
2019-03-24T22:21:39.685Z,2.67
2019-03-24T22:24:09.018Z,2.97
2019-03-24T22:26:38.344Z,2.27
2019-03-24T22:29:07.761Z,2.57
2019-03-24T22:31:37.218Z,1.93
2019-03-24T22:34:06.630Z,2.27
2019-03-24T22:36:35.963Z,2.30
2019-03-24T22:39:07.476Z,2.70
2019-03-24T22:41:36.923Z,3.27
2019-03-24T22:44:06.300Z,2.37
2019-03-24T22:46:35.743Z,2.43
2019-03-24T22:49:05.359Z,2.40
2019-03-24T22:51:34.715Z,2.33
2019-03-24T22:54:04.091Z,2.57
2019-03-24T22:56:33.400Z,2.33
2019-03-24T22:59:02.843Z,2.30
2019-03-24T23:01:32.442Z,2.03
2019-03-24T23:04:03.065Z,1.90
2019-03-24T23:06:32.377Z,2.50
2019-03-24T23:09:01.888Z,2.40
2019-03-24T23:11:31.205Z,2.23
2019-03-24T23:14:00.612Z,2.20
2019-03-24T23:16:30.083Z,2.30
2019-03-24T23:18:59.383Z,2.13
2019-03-24T23:21:28.739Z,2.37
2019-03-24T23:23:58.891Z,2.67
2019-03-24T23:26:28.242Z,2.57
2019-03-24T23:28:57.806Z,2.33
2019-03-24T23:31:27.254Z,2.60
2019-03-24T23:33:56.566Z,2.43
2019-03-24T23:36:26.224Z,2.20
2019-03-24T23:38:57.367Z,2.30
2019-03-24T23:41:27.214Z,2.40
2019-03-24T23:43:56.537Z,2.00
2019-03-24T23:46:25.867Z,2.43
2019-03-24T23:48:55.398Z,2.40
2019-03-24T23:51:24.714Z,2.73
2019-03-24T23:53:54.942Z,2.40
2019-03-24T23:56:24.251Z,2.63
2019-03-24T23:58:53.604Z,2.70
